Time;durP1;ratioP1;P1;durP2;ratioP2;P2;SDS_P1;SDS_P2;PMS_P1;PMS_P2;Temp;Humidity;BMP_temperature;BMP_pressure;BME280_temperature;BME280_humidity;BME280_pressure;Samples;Min_cycle;Max_cycle;Signal;HPM_P1;HPM_P2
2022/06/09 00:00:11;;;;;;;19.67;4.47;;;14.50;99.90;;;;;;4999574;28;20216;-59
2022/06/09 00:02:45;;;;;;;21.70;4.00;;;14.50;99.90;;;;;;4999000;28;20200;-59
2022/06/09 00:05:14;;;;;;;22.23;4.47;;;14.50;99.90;;;;;;5033417;28;20199;-59
2022/06/09 00:07:44;;;;;;;26.27;4.67;;;14.40;99.90;;;;;;5014853;28;20225;-60
2022/06/09 00:10:17;;;;;;;18.37;4.27;;;14.40;99.90;;;;;;5012332;28;20202;-59
2022/06/09 00:12:46;;;;;;;26.00;4.67;;;14.40;99.90;;;;;;5011454;28;20212;-60
2022/06/09 00:15:16;;;;;;;19.53;4.90;;;14.40;99.90;;;;;;5005547;28;20229;-59
2022/06/09 00:17:46;;;;;;;31.00;5.40;;;14.40;99.90;;;;;;5013222;28;20202;-58
2022/06/09 00:20:16;;;;;;;19.23;4.87;;;14.30;99.90;;;;;;5013058;28;20225;-59
2022/06/09 00:22:45;;;;;;;17.27;3.97;;;14.30;99.90;;;;;;5011799;28;20230;-60
2022/06/09 00:25:14;;;;;;;24.53;4.60;;;14.30;99.90;;;;;;4994453;28;20544;-59
2022/06/09 00:27:42;;;;;;;23.63;4.30;;;14.20;99.90;;;;;;5009713;28;20716;-59
2022/06/09 00:30:14;;;;;;;23.23;5.73;;;14.20;99.90;;;;;;5009875;28;20191;-59
2022/06/09 00:32:44;;;;;;;23.07;4.30;;;14.20;99.90;;;;;;5008939;28;20191;-59
2022/06/09 00:35:14;;;;;;;29.43;5.10;;;14.20;99.90;;;;;;5009234;28;20206;-59
2022/06/09 00:37:42;;;;;;;18.67;4.60;;;14.10;99.90;;;;;;4999602;28;20248;-59
2022/06/09 00:40:13;;;;;;;18.10;4.30;;;14.10;99.90;;;;;;4999622;28;20212;-58
2022/06/09 00:42:42;;;;;;;24.57;4.60;;;14.00;99.90;;;;;;5001261;28;20182;-58
2022/06/09 00:45:27;;;;;;;18.90;3.90;;;14.00;99.90;;;;;;5013300;28;20544;-59
2022/06/09 00:48:08;;;;;;;27.50;4.77;;;14.00;99.90;;;;;;5016627;28;20206;-59
2022/06/09 00:50:41;;;;;;;17.00;3.83;;;14.00;99.90;;;;;;5012837;28;20241;-59
2022/06/09 00:53:17;;;;;;;23.10;5.27;;;14.00;99.90;;;;;;5000104;28;20195;-59
2022/06/09 00:55:46;;;;;;;21.33;4.80;;;14.00;99.90;;;;;;5004858;28;20221;-59
2022/06/09 00:58:18;;;;;;;29.93;5.80;;;13.90;99.90;;;;;;4999349;28;20277;-59
2022/06/09 01:05:08;;;;;;;30.13;5.10;;;13.90;99.90;;;;;;4992041;28;20550;-60
2022/06/09 01:22:13;;;;;;;18.83;4.83;;;13.70;99.90;;;;;;4994518;28;20272;-58
2022/06/09 01:25:07;;;;;;;25.13;5.03;;;13.70;99.90;;;;;;4997068;28;20194;-59
2022/06/09 01:27:54;;;;;;;26.43;5.60;;;13.70;99.90;;;;;;5025658;28;20204;-59
2022/06/09 01:30:39;;;;;;;11.00;4.00;;;13.70;99.90;;;;;;5012295;28;20199;-59
2022/06/09 01:33:15;;;;;;;24.77;4.93;;;13.60;99.90;;;;;;5031009;28;20531;-59
2022/06/09 01:35:51;;;;;;;26.90;5.17;;;13.60;99.90;;;;;;4992898;28;20531;-58
2022/06/09 01:38:22;;;;;;;26.33;5.00;;;13.60;99.90;;;;;;5000963;28;20241;-59
2022/06/09 01:40:50;;;;;;;21.87;5.00;;;13.60;99.90;;;;;;5034045;28;20186;-59
2022/06/09 01:43:19;;;;;;;23.03;5.77;;;13.60;99.90;;;;;;5017700;28;20194;-59
2022/06/09 01:45:58;;;;;;;23.97;5.03;;;13.60;99.90;;;;;;4995415;28;20190;-59
2022/06/09 01:48:27;;;;;;;24.57;4.80;;;13.60;99.90;;;;;;5029667;28;20662;-58
2022/06/09 01:51:00;;;;;;;22.77;4.77;;;13.60;99.90;;;;;;5101082;28;20193;-59
2022/06/09 01:53:36;;;;;;;25.83;4.80;;;13.60;99.90;;;;;;5011946;28;20191;-59
2022/06/09 01:56:08;;;;;;;22.40;4.57;;;13.50;99.90;;;;;;5012025;28;20200;-58
2022/06/09 01:58:42;;;;;;;20.47;4.43;;;13.50;99.90;;;;;;5011187;28;20201;-58
2022/06/09 02:01:15;;;;;;;25.03;4.93;;;13.50;99.90;;;;;;5006728;28;20232;-58
2022/06/09 02:03:47;;;;;;;20.50;4.80;;;13.50;99.90;;;;;;5055556;28;20194;-58
2022/06/09 02:06:17;;;;;;;19.67;4.30;;;13.40;99.90;;;;;;5050131;28;20647;-58
2022/06/09 02:08:47;;;;;;;17.57;4.87;;;13.50;99.90;;;;;;5001970;28;20218;-58
2022/06/09 02:11:16;;;;;;;20.57;4.27;;;13.50;99.90;;;;;;5002885;28;20293;-58
2022/06/09 02:13:48;;;;;;;19.97;4.60;;;13.50;99.90;;;;;;5008277;28;20217;-58
2022/06/09 02:16:21;;;;;;;22.70;5.57;;;13.50;99.90;;;;;;5011575;28;20221;-59
2022/06/09 02:18:52;;;;;;;24.87;5.00;;;13.50;99.90;;;;;;5011617;28;20308;-58
2022/06/09 02:21:25;;;;;;;22.30;4.93;;;13.50;99.90;;;;;;4997265;28;20282;-58
2022/06/09 02:23:53;;;;;;;29.30;5.00;;;13.50;99.90;;;;;;4999528;28;20245;-59
2022/06/09 02:26:22;;;;;;;23.13;4.80;;;13.50;99.90;;;;;;5004290;28;20194;-59
2022/06/09 02:28:51;;;;;;;29.50;5.50;;;13.50;99.90;;;;;;5003855;28;20229;-59
2022/06/09 02:31:22;;;;;;;31.13;5.10;;;13.50;99.90;;;;;;5011507;28;20712;-58
2022/06/09 02:33:52;;;;;;;18.03;4.13;;;13.50;99.90;;;;;;5010091;28;20197;-58
2022/06/09 02:36:21;;;;;;;21.10;4.67;;;13.40;99.90;;;;;;5011301;28;20194;-58
2022/06/09 02:38:49;;;;;;;17.13;4.07;;;13.40;99.90;;;;;;5019939;28;20258;-59
2022/06/09 02:41:19;;;;;;;15.63;4.43;;;13.40;99.90;;;;;;5004503;28;20195;-58
2022/06/09 02:43:47;;;;;;;18.20;5.57;;;13.40;99.90;;;;;;4999497;28;20202;-58
2022/06/09 02:46:18;;;;;;;16.70;4.00;;;13.50;99.90;;;;;;5008581;28;20230;-58
2022/06/09 02:48:48;;;;;;;22.27;4.53;;;13.40;99.90;;;;;;5001806;28;20206;-58
2022/06/09 02:51:18;;;;;;;20.53;4.13;;;13.40;99.90;;;;;;5010497;28;20285;-59
2022/06/09 02:53:47;;;;;;;20.37;5.30;;;13.50;99.90;;;;;;5010895;28;20545;-59
2022/06/09 02:56:17;;;;;;;20.23;4.40;;;13.50;99.90;;;;;;5009119;28;20657;-59
2022/06/09 02:58:45;;;;;;;21.87;5.33;;;13.50;99.90;;;;;;5042537;28;20206;-58
2022/06/09 03:01:14;;;;;;;23.60;4.43;;;13.50;99.90;;;;;;5003293;28;20555;-58
2022/06/09 03:03:42;;;;;;;19.70;4.67;;;13.50;99.90;;;;;;4995843;28;20294;-59
2022/06/09 03:06:12;;;;;;;18.77;4.83;;;13.50;99.90;;;;;;5003878;28;20201;-58
2022/06/09 03:08:41;;;;;;;17.10;4.50;;;13.60;99.90;;;;;;5010804;28;20206;-58
2022/06/09 03:11:10;;;;;;;24.63;4.50;;;13.60;99.90;;;;;;5003403;28;20209;-59
2022/06/09 03:13:39;;;;;;;14.13;4.00;;;13.60;99.90;;;;;;5026015;28;20199;-59
2022/06/09 03:16:09;;;;;;;26.73;4.77;;;13.60;99.90;;;;;;5010182;28;20210;-58
2022/06/09 03:18:38;;;;;;;22.60;4.70;;;13.60;99.90;;;;;;5010625;28;20222;-59
2022/06/09 03:21:08;;;;;;;17.83;4.13;;;13.60;99.90;;;;;;5003941;28;20255;-58
2022/06/09 03:23:38;;;;;;;22.23;4.20;;;13.60;99.90;;;;;;5010216;28;20284;-58
2022/06/09 03:26:07;;;;;;;16.13;4.40;;;13.50;99.90;;;;;;5007951;28;20654;-59
2022/06/09 03:28:36;;;;;;;20.57;4.23;;;13.50;99.90;;;;;;5010258;28;20202;-58
2022/06/09 03:31:07;;;;;;;19.83;4.40;;;13.50;99.90;;;;;;5001012;28;20222;-58
2022/06/09 03:33:36;;;;;;;19.63;4.30;;;13.50;99.90;;;;;;4999082;28;20207;-59
2022/06/09 03:36:05;;;;;;;18.93;4.30;;;13.50;99.90;;;;;;5010414;28;20194;-59
2022/06/09 03:38:34;;;;;;;21.37;4.43;;;13.40;99.90;;;;;;5010668;28;20278;-58
2022/06/09 03:41:04;;;;;;;31.13;4.80;;;13.40;99.90;;;;;;5002870;28;20265;-58
2022/06/09 03:43:35;;;;;;;29.93;4.73;;;13.50;99.90;;;;;;5010186;28;20206;-59
2022/06/09 03:46:04;;;;;;;20.90;4.67;;;13.40;99.90;;;;;;5018585;28;20246;-59
2022/06/09 03:48:33;;;;;;;22.30;4.83;;;13.40;99.90;;;;;;5015979;28;20259;-58
2022/06/09 03:51:01;;;;;;;25.83;4.70;;;13.40;99.90;;;;;;5008526;28;20758;-58
2022/06/09 03:53:30;;;;;;;21.57;4.03;;;13.40;99.90;;;;;;5071593;28;20658;-59
2022/06/09 03:55:58;;;;;;;22.00;4.10;;;13.40;99.90;;;;;;5088061;28;20705;-59
2022/06/09 03:58:28;;;;;;;22.30;4.47;;;13.40;99.90;;;;;;5006446;28;20584;-58
2022/06/09 04:00:56;;;;;;;16.10;4.20;;;13.50;99.90;;;;;;5009464;28;20220;-59
2022/06/09 04:04:05;;;;;;;14.53;4.00;;;13.50;99.90;;;;;;5002884;28;20228;-59
2022/06/09 04:06:36;;;;;;;19.23;4.33;;;13.60;99.90;;;;;;4996022;28;20191;-58
2022/06/09 04:09:05;;;;;;;16.93;4.77;;;13.60;99.90;;;;;;4989461;28;20588;-58
2022/06/09 04:11:33;;;;;;;26.07;4.87;;;13.70;99.90;;;;;;5006364;28;20254;-58
2022/06/09 04:14:43;;;;;;;22.90;3.90;;;13.70;99.90;;;;;;5005855;28;20611;-58
2022/06/09 04:17:52;;;;;;;15.27;4.00;;;13.70;99.90;;;;;;4990484;28;20203;-59
2022/06/09 04:21:01;;;;;;;21.10;4.33;;;13.80;99.90;;;;;;4992885;28;20203;-58
2022/06/09 04:24:09;;;;;;;16.03;4.17;;;13.80;99.90;;;;;;5001117;28;20202;-59
2022/06/09 04:27:18;;;;;;;15.60;4.20;;;13.90;99.90;;;;;;5008351;28;20840;-58
2022/06/09 04:29:47;;;;;;;23.83;4.70;;;13.90;99.90;;;;;;5029363;28;20244;-58
2022/06/09 04:32:56;;;;;;;21.77;4.27;;;13.90;99.90;;;;;;5022836;28;20535;-58
2022/06/09 04:36:04;;;;;;;20.87;4.60;;;14.00;99.90;;;;;;5059706;28;20206;-58
2022/06/09 04:39:13;;;;;;;20.37;3.83;;;13.90;99.90;;;;;;5032781;28;20210;-59
2022/06/09 04:42:22;;;;;;;24.43;4.10;;;14.00;99.90;;;;;;5008792;28;20210;-59
2022/06/09 04:45:31;;;;;;;20.33;4.27;;;14.00;99.90;;;;;;4997906;28;20203;-59
2022/06/09 04:48:41;;;;;;;24.80;4.67;;;14.00;99.90;;;;;;5004151;28;20273;-58
2022/06/09 04:51:49;;;;;;;12.60;4.20;;;14.00;99.90;;;;;;5012921;28;20275;-58
2022/06/09 04:54:57;;;;;;;19.17;4.23;;;14.00;99.90;;;;;;5004840;28;20210;-60
2022/06/09 04:58:07;;;;;;;17.47;3.97;;;13.90;99.90;;;;;;5012414;28;20206;-58
2022/06/09 05:01:20;;;;;;;21.60;4.23;;;14.00;99.90;;;;;;5017824;28;20657;-58
2022/06/09 05:04:29;;;;;;;18.37;3.53;;;14.00;99.90;;;;;;5016080;28;20670;-59
2022/06/09 05:07:37;;;;;;;18.17;4.77;;;14.00;99.90;;;;;;5011824;28;20198;-58
2022/06/09 05:10:47;;;;;;;26.47;4.70;;;14.00;99.90;;;;;;5010032;28;20275;-58
2022/06/09 05:13:55;;;;;;;17.50;4.10;;;14.00;99.90;;;;;;5001498;28;20195;-58
2022/06/09 05:17:06;;;;;;;19.17;3.90;;;14.00;99.90;;;;;;5017996;28;20199;-59
2022/06/09 05:20:16;;;;;;;16.07;4.23;;;14.00;99.90;;;;;;5000580;28;20233;-59
2022/06/09 05:23:26;;;;;;;21.57;4.67;;;14.00;99.90;;;;;;5021559;28;20226;-58
2022/06/09 05:26:34;;;;;;;17.87;4.50;;;14.00;99.90;;;;;;5010050;28;20202;-59
2022/06/09 05:29:43;;;;;;;20.03;4.57;;;14.00;99.90;;;;;;5012234;28;20214;-58
2022/06/09 05:32:53;;;;;;;21.33;4.57;;;14.10;99.90;;;;;;5020954;28;20213;-58
2022/06/09 05:36:01;;;;;;;15.97;4.17;;;14.20;99.90;;;;;;5011505;28;20275;-58
2022/06/09 05:46:02;;;;;;;15.07;3.53;;;14.20;99.90;;;;;;5000588;28;20220;-58
2022/06/09 05:49:12;;;;;;;18.90;3.87;;;14.30;99.90;;;;;;5007541;28;20274;-58
2022/06/09 05:52:07;;;;;;;16.43;3.67;;;14.20;99.90;;;;;;5004786;28;20246;-58
2022/06/09 05:54:55;;;;;;;24.63;4.03;;;14.30;99.90;;;;;;4996890;28;20203;-58
2022/06/09 05:57:44;;;;;;;22.17;4.00;;;14.30;99.90;;;;;;5011747;28;20207;-58
2022/06/09 06:00:32;;;;;;;20.13;4.10;;;14.30;99.90;;;;;;5005025;28;20191;-59
2022/06/09 06:03:21;;;;;;;16.57;3.77;;;14.30;99.90;;;;;;5011270;28;20209;-58
2022/06/09 06:09:18;;;;;;;19.70;3.83;;;14.50;99.90;;;;;;5019943;28;20191;-58
2022/06/09 06:12:08;;;;;;;19.27;4.00;;;14.70;99.90;;;;;;4999170;28;20681;-58
2022/06/09 06:14:56;;;;;;;20.87;4.20;;;14.80;99.90;;;;;;4996328;28;20207;-57
2022/06/09 06:17:44;;;;;;;21.97;4.40;;;14.80;99.90;;;;;;5051817;28;20211;-58
2022/06/09 06:20:34;;;;;;;17.20;4.60;;;14.90;99.90;;;;;;5003386;28;20195;-58
2022/06/09 06:23:23;;;;;;;16.80;3.77;;;15.00;99.90;;;;;;5011465;28;20235;-58
2022/06/09 06:26:12;;;;;;;19.90;4.00;;;15.20;99.90;;;;;;5003480;28;20209;-60
2022/06/09 06:29:01;;;;;;;18.73;4.30;;;15.30;99.90;;;;;;5011376;28;20274;-59
2022/06/09 06:31:49;;;;;;;13.13;3.37;;;15.40;99.90;;;;;;5010510;28;20210;-59
2022/06/09 06:34:38;;;;;;;15.27;4.37;;;15.40;99.90;;;;;;5008813;28;20731;-59
2022/06/09 06:37:26;;;;;;;11.07;4.07;;;15.40;99.90;;;;;;5008802;28;20199;-59
2022/06/09 06:40:17;;;;;;;20.23;4.17;;;15.40;99.90;;;;;;5000648;28;20626;-60
2022/06/09 06:43:06;;;;;;;24.47;4.50;;;15.60;99.90;;;;;;5004878;28;20278;-59
2022/06/09 06:45:55;;;;;;;12.17;3.60;;;15.80;99.90;;;;;;5002652;28;20261;-59
2022/06/09 06:48:24;;;;;;;17.50;4.20;;;15.90;99.90;;;;;;5010831;28;20226;-59
2022/06/09 06:50:53;;;;;;;21.07;4.20;;;16.10;99.90;;;;;;5027757;28;20223;-59
2022/06/09 06:53:21;;;;;;;14.90;3.87;;;16.10;99.90;;;;;;5011205;28;20199;-59
2022/06/09 06:55:51;;;;;;;21.30;4.10;;;16.10;99.90;;;;;;5010980;28;20212;-59
2022/06/09 06:58:20;;;;;;;22.37;4.47;;;16.00;99.90;;;;;;5078223;28;20231;-59
2022/06/09 07:00:48;;;;;;;11.90;3.83;;;16.10;99.90;;;;;;5048882;28;20196;-59
2022/06/09 07:03:16;;;;;;;22.03;4.27;;;16.10;99.90;;;;;;5011402;28;20194;-59
2022/06/09 07:05:59;;;;;;;67.73;8.57;;;16.20;99.90;;;;;;5012069;28;20208;-59
2022/06/09 07:08:28;;;;;;;12.10;3.90;;;16.40;99.90;;;;;;5004441;28;20213;-59
2022/06/09 07:11:00;;;;;;;31.50;5.30;;;16.60;99.90;;;;;;5010695;28;20300;-59
2022/06/09 07:13:28;;;;;;;14.80;4.20;;;16.70;99.90;;;;;;5001617;28;20539;-59
2022/06/09 07:15:57;;;;;;;11.30;3.47;;;16.80;99.90;;;;;;5016348;28;20596;-59
2022/06/09 07:18:28;;;;;;;12.77;3.70;;;16.90;99.90;;;;;;5009182;28;20235;-58
2022/06/09 07:20:57;;;;;;;17.93;4.10;;;16.90;99.90;;;;;;5002852;28;20259;-59
2022/06/09 07:23:26;;;;;;;14.23;4.00;;;17.00;99.90;;;;;;5004440;28;20237;-59
2022/06/09 07:25:56;;;;;;;16.17;3.63;;;17.00;99.90;;;;;;5028942;28;20210;-60
2022/06/09 07:28:27;;;;;;;15.57;3.83;;;17.00;99.90;;;;;;5011889;28;20210;-59
2022/06/09 07:30:58;;;;;;;15.77;3.23;;;16.90;99.90;;;;;;5010253;28;20204;-60
2022/06/09 07:33:29;;;;;;;12.03;3.70;;;16.90;99.90;;;;;;5010449;28;20206;-59
2022/06/09 07:36:06;;;;;;;18.07;3.97;;;16.90;99.90;;;;;;5059167;28;20204;-59
2022/06/09 07:38:35;;;;;;;14.10;3.97;;;16.90;99.90;;;;;;4995099;28;20197;-59
2022/06/09 07:41:08;;;;;;;14.43;3.90;;;17.00;99.90;;;;;;5035565;28;21257;-58
2022/06/09 07:43:57;;;;;;;11.97;3.87;;;17.00;99.90;;;;;;4999765;28;20638;-59
2022/06/09 07:46:25;;;;;;;12.47;3.90;;;17.30;99.90;;;;;;5010392;28;20229;-59
2022/06/09 07:48:54;;;;;;;10.30;3.80;;;17.60;99.90;;;;;;5010528;28;20202;-59
2022/06/09 07:51:22;;;;;;;13.53;3.57;;;17.90;99.90;;;;;;5010068;28;20275;-59
2022/06/09 07:53:51;;;;;;;9.67;3.67;;;18.10;99.90;;;;;;5010453;28;20650;-59
2022/06/09 07:56:21;;;;;;;11.20;3.40;;;18.10;99.90;;;;;;5010465;28;20286;-59
2022/06/09 07:58:52;;;;;;;15.23;3.63;;;18.20;99.90;;;;;;5013927;28;20190;-60
2022/06/09 08:01:22;;;;;;;10.40;3.83;;;18.20;99.90;;;;;;5011779;28;20198;-60
2022/06/09 08:03:51;;;;;;;7.70;3.17;;;18.10;99.90;;;;;;5011918;28;20653;-59
2022/06/09 08:06:19;;;;;;;27.47;4.90;;;18.30;99.90;;;;;;5015031;28;20206;-59
2022/06/09 08:08:55;;;;;;;11.03;3.73;;;18.30;99.90;;;;;;5013446;28;20717;-59
2022/06/09 08:11:26;;;;;;;101.30;11.30;;;18.30;99.90;;;;;;5025976;28;20289;-60
2022/06/09 08:13:56;;;;;;;34.07;5.83;;;18.10;99.90;;;;;;5014031;28;20711;-59
2022/06/09 08:16:25;;;;;;;15.87;3.20;;;18.00;99.90;;;;;;5010974;28;20594;-59
2022/06/09 08:18:54;;;;;;;13.10;3.90;;;17.80;99.90;;;;;;4995423;28;20681;-58
2022/06/09 08:21:22;;;;;;;13.37;3.43;;;17.90;99.90;;;;;;5020559;28;20201;-59
2022/06/09 08:24:10;;;;;;;13.57;3.77;;;18.00;99.90;;;;;;5023012;28;20312;-59
2022/06/09 08:26:40;;;;;;;13.17;3.80;;;18.00;99.90;;;;;;5013455;28;20232;-60
2022/06/09 08:29:08;;;;;;;12.27;3.53;;;18.10;99.90;;;;;;5000837;28;20210;-59
2022/06/09 08:31:36;;;;;;;12.17;3.87;;;18.10;99.90;;;;;;5016256;28;20632;-59
2022/06/09 08:34:05;;;;;;;17.20;4.07;;;18.20;99.90;;;;;;5041280;27;20688;-59
2022/06/09 08:36:33;;;;;;;8.23;3.53;;;18.30;99.90;;;;;;5011822;28;20715;-59
2022/06/09 08:39:01;;;;;;;8.03;3.20;;;18.40;99.90;;;;;;5014414;28;20202;-59
2022/06/09 08:41:37;;;;;;;8.17;3.23;;;18.50;99.90;;;;;;5017408;28;20206;-60
2022/06/09 08:44:24;;;;;;;10.40;2.90;;;18.50;99.90;;;;;;5020043;28;20305;-59
2022/06/09 08:47:02;;;;;;;4.70;2.17;;;18.60;99.90;;;;;;5012780;28;20206;-60
2022/06/09 08:49:41;;;;;;;7.87;2.50;;;18.80;99.90;;;;;;5000180;28;20209;-60
2022/06/09 08:52:17;;;;;;;4.83;2.20;;;18.70;99.90;;;;;;5008696;28;20228;-60
2022/06/09 08:54:47;;;;;;;6.53;2.23;;;18.60;99.90;;;;;;5013176;28;20198;-59
2022/06/09 08:57:22;;;;;;;7.77;2.53;;;18.60;99.90;;;;;;5036559;28;20222;-58
2022/06/09 08:59:57;;;;;;;12.80;3.23;;;18.70;99.90;;;;;;5080868;28;20201;-59
2022/06/09 09:02:36;;;;;;;8.77;3.30;;;18.70;99.90;;;;;;5019137;28;20657;-60
2022/06/09 09:05:14;;;;;;;12.60;3.13;;;18.70;99.90;;;;;;5060217;28;20275;-60
2022/06/09 09:07:46;;;;;;;11.07;3.63;;;18.90;99.90;;;;;;5074793;28;20202;-60
2022/06/09 09:10:23;;;;;;;11.53;3.70;;;19.00;99.90;;;;;;5012251;28;20208;-61
2022/06/09 09:13:39;;;;;;;10.33;3.63;;;19.00;99.90;;;;;;5026395;28;20213;-59
2022/06/09 09:16:21;;;;;;;11.33;4.17;;;19.00;99.90;;;;;;5006031;28;20198;-60
2022/06/09 09:18:54;;;;;;;10.33;3.90;;;18.90;99.90;;;;;;5011361;28;20611;-59
2022/06/09 09:21:38;;;;;;;12.73;3.83;;;18.80;99.90;;;;;;5012555;28;20198;-59
2022/06/09 09:24:19;;;;;;;13.77;4.17;;;18.80;99.90;;;;;;5019846;28;20197;-60
2022/06/09 09:26:58;;;;;;;16.67;4.20;;;19.00;99.90;;;;;;5012645;28;20203;-59
2022/06/09 09:29:32;;;;;;;16.77;4.40;;;19.10;99.90;;;;;;5011882;28;20252;-60
2022/06/09 09:32:06;;;;;;;17.27;4.27;;;19.20;99.90;;;;;;5009348;28;20209;-59
2022/06/09 09:34:37;;;;;;;18.10;4.50;;;19.10;99.90;;;;;;5002908;28;20251;-59
2022/06/09 09:37:21;;;;;;;14.63;4.27;;;19.10;99.90;;;;;;5005171;28;20214;-59
2022/06/09 09:39:54;;;;;;;17.23;4.90;;;19.10;99.90;;;;;;5003242;28;20214;-59
2022/06/09 09:42:26;;;;;;;13.20;4.17;;;19.50;99.90;;;;;;5012293;28;20215;-60
2022/06/09 09:45:02;;;;;;;9.63;3.93;;;19.70;99.90;;;;;;5011919;28;20222;-59
2022/06/09 09:47:44;;;;;;;12.57;4.17;;;19.80;99.90;;;;;;5013358;28;20313;-60
2022/06/09 09:50:22;;;;;;;12.73;4.10;;;19.90;99.90;;;;;;5025282;28;20590;-59
2022/06/09 09:52:57;;;;;;;26.40;4.70;;;20.10;99.90;;;;;;5021845;28;20225;-60
2022/06/09 09:55:33;;;;;;;27.53;5.63;;;20.40;99.90;;;;;;5016555;28;20231;-60
2022/06/09 09:58:21;;;;;;;9.27;3.63;;;20.80;99.90;;;;;;5018419;28;20236;-57
2022/06/09 10:00:52;;;;;;;8.73;2.90;;;21.00;99.90;;;;;;5009270;28;20228;-57
2022/06/09 10:09:38;;;;;;;10.57;3.20;;;21.00;99.90;;;;;;4995391;28;20184;-59
2022/06/09 10:12:29;;;;;;;12.30;3.60;;;20.60;99.90;;;;;;4999889;28;20233;-59
2022/06/09 10:15:03;;;;;;;11.00;4.33;;;20.40;99.90;;;;;;5011408;28;20218;-59
2022/06/09 10:17:59;;;;;;;14.20;4.20;;;20.10;99.90;;;;;;4998283;28;20220;-60
2022/06/09 10:21:04;;;;;;;12.80;4.17;;;19.70;99.90;;;;;;4998506;28;20759;-59
2022/06/09 10:23:49;;;;;;;13.93;4.33;;;19.40;99.90;;;;;;5009975;28;20254;-59
2022/06/09 10:26:19;;;;;;;9.23;3.80;;;19.40;99.90;;;;;;5010014;28;20193;-59
2022/06/09 10:28:55;;;;;;;7.00;3.60;;;19.30;99.90;;;;;;5008571;28;20222;-59
2022/06/09 10:31:34;;;;;;;9.83;4.03;;;19.50;99.90;;;;;;5010220;28;20224;-59
2022/06/09 10:34:14;;;;;;;11.90;3.93;;;19.50;99.90;;;;;;5010192;28;20228;-59
2022/06/09 10:36:53;;;;;;;7.90;3.80;;;19.50;99.90;;;;;;5003483;28;20206;-58
2022/06/09 10:39:34;;;;;;;14.93;4.20;;;19.40;99.90;;;;;;5004234;28;20210;-59
2022/06/09 10:42:12;;;;;;;12.40;4.17;;;19.30;99.90;;;;;;4999896;28;20267;-59
2022/06/09 10:44:46;;;;;;;12.00;4.33;;;19.50;99.90;;;;;;5008038;28;20229;-59
2022/06/09 10:56:08;;;;;;;17.53;4.70;;;19.90;99.90;;;;;;4999064;28;20268;-59
2022/06/09 10:58:42;;;;;;;15.47;4.70;;;19.80;99.90;;;;;;5026113;28;20190;-59
2022/06/09 11:01:20;;;;;;;12.93;4.53;;;19.60;99.90;;;;;;5010919;28;20201;-59
2022/06/09 11:03:51;;;;;;;9.60;4.40;;;19.60;99.90;;;;;;5011002;28;20281;-59
2022/06/09 11:06:32;;;;;;;11.73;4.63;;;19.60;99.90;;;;;;5011620;28;20263;-60
2022/06/09 11:09:11;;;;;;;14.00;4.50;;;19.70;99.90;;;;;;5010992;28;20205;-57
2022/06/09 11:11:48;;;;;;;7.87;3.90;;;20.30;99.90;;;;;;5010685;28;20209;-57
2022/06/09 11:14:41;;;;;;;11.30;4.23;;;20.70;99.90;;;;;;5036626;28;20426;-58
2022/06/09 11:17:28;;;;;;;11.60;3.87;;;20.80;99.90;;;;;;5011016;28;20245;-56
2022/06/09 11:20:07;;;;;;;13.63;3.70;;;20.60;99.90;;;;;;4996149;28;20210;-58
2022/06/09 11:22:46;;;;;;;8.33;3.67;;;20.90;99.90;;;;;;4991223;28;20236;-59
2022/06/09 11:25:32;;;;;;;11.83;3.90;;;21.60;99.90;;;;;;4994174;28;20290;-57
2022/06/09 11:28:14;;;;;;;14.97;3.90;;;22.40;99.90;;;;;;5001139;28;20655;-57
2022/06/09 11:31:03;;;;;;;8.67;3.13;;;23.00;99.90;;;;;;4998157;28;20661;-57
2022/06/09 11:33:46;;;;;;;9.33;3.07;;;23.10;99.90;;;;;;4997760;28;20310;-58
2022/06/09 11:36:21;;;;;;;9.97;3.10;;;22.70;99.90;;;;;;5015185;28;20235;-56
2022/06/09 11:38:57;;;;;;;8.80;2.60;;;22.00;99.90;;;;;;5034049;28;20596;-57
2022/06/09 11:41:34;;;;;;;7.07;2.33;;;21.50;99.90;;;;;;4991885;28;20650;-57
2022/06/09 11:44:21;;;;;;;7.13;2.63;;;21.70;99.90;;;;;;5008944;28;20195;-60
2022/06/09 11:46:51;;;;;;;6.30;2.50;;;22.20;99.90;;;;;;5009577;28;20831;-59
2022/06/09 11:49:23;;;;;;;8.97;2.63;;;22.10;99.90;;;;;;5010440;28;20231;-59
2022/06/09 11:51:52;;;;;;;4.83;2.10;;;21.60;99.90;;;;;;5004603;28;20207;-59
2022/06/09 11:54:58;;;;;;;8.60;2.63;;;21.40;99.90;;;;;;5013380;28;20263;-60
2022/06/09 11:57:44;;;;;;;6.10;2.30;;;21.40;99.90;;;;;;4915765;29;20221;-59
2022/06/09 12:00:38;;;;;;;7.03;2.00;;;21.80;99.90;;;;;;4986245;28;20654;-59
2022/06/09 12:03:34;;;;;;;7.00;2.07;;;22.20;99.90;;;;;;5007839;28;20232;-60
2022/06/09 12:06:15;;;;;;;3.17;2.00;;;22.20;99.90;;;;;;5008409;28;20216;-57
2022/06/09 12:08:56;;;;;;;10.27;2.70;;;22.30;99.90;;;;;;5004631;28;20223;-59
2022/06/09 12:11:34;;;;;;;7.57;2.97;;;22.40;99.90;;;;;;5002713;28;20209;-59
2022/06/09 12:14:18;;;;;;;6.27;2.20;;;22.70;99.90;;;;;;5006950;28;20227;-58
2022/06/09 12:17:08;;;;;;;7.47;2.60;;;22.60;99.90;;;;;;5009941;28;20258;-59
2022/06/09 12:19:50;;;;;;;2.97;2.20;;;22.10;99.90;;;;;;5003356;28;20228;-59
2022/06/09 12:22:48;;;;;;;4.77;2.00;;;21.80;99.90;;;;;;5009698;28;20239;-59
2022/06/09 12:25:36;;;;;;;8.60;2.33;;;21.60;99.90;;;;;;5017363;28;20198;-60
2022/06/09 12:28:43;;;;;;;8.40;2.67;;;21.80;99.90;;;;;;5098035;28;20209;-59
2022/06/09 12:31:15;;;;;;;7.10;2.63;;;22.30;99.90;;;;;;5009139;28;20210;-59
2022/06/09 12:33:51;;;;;;;5.43;2.40;;;22.50;99.90;;;;;;5015133;28;20222;-60
2022/06/09 12:36:38;;;;;;;3.63;1.90;;;22.40;99.90;;;;;;5014297;28;20220;-59
2022/06/09 12:39:18;;;;;;;3.10;1.90;;;22.20;99.90;;;;;;4997408;28;20264;-60
2022/06/09 12:41:52;;;;;;;7.73;2.43;;;22.30;99.90;;;;;;5004056;28;20200;-59
2022/06/09 12:44:29;;;;;;;7.53;2.83;;;22.40;99.90;;;;;;5011815;28;20199;-61
2022/06/09 12:47:01;;;;;;;1.90;1.80;;;22.40;99.90;;;;;;5012975;28;20229;-60
2022/06/09 12:49:32;;;;;;;5.90;2.47;;;22.40;99.90;;;;;;5013029;28;20284;-60
2022/06/09 12:52:01;;;;;;;9.73;2.63;;;22.70;99.90;;;;;;5012993;28;20647;-59
2022/06/09 12:54:36;;;;;;;6.80;2.67;;;22.80;99.90;;;;;;5012514;28;20730;-59
2022/06/09 12:57:13;;;;;;;7.20;2.67;;;22.90;99.90;;;;;;5004605;28;20199;-59
2022/06/09 12:59:42;;;;;;;7.40;2.20;;;23.00;99.90;;;;;;4999171;28;20260;-59
2022/06/09 13:02:24;;;;;;;7.07;2.37;;;22.90;99.90;;;;;;5012631;28;20276;-59
2022/06/09 13:04:55;;;;;;;9.37;2.43;;;23.00;99.90;;;;;;5009290;28;20264;-59
2022/06/09 13:07:27;;;;;;;7.20;2.30;;;23.20;99.90;;;;;;5012706;28;20204;-59
2022/06/09 13:10:01;;;;;;;3.60;2.00;;;23.30;99.90;;;;;;5010746;28;20209;-59
2022/06/09 13:15:25;;;;;;;3.67;2.27;;;23.60;99.90;;;;;;4994747;28;20230;-59
2022/06/09 13:17:58;;;;;;;6.10;2.40;;;23.90;99.90;;;;;;5005832;28;20234;-60
2022/06/09 13:20:26;;;;;;;5.23;2.13;;;23.80;99.90;;;;;;5012378;28;20232;-59
2022/06/09 13:22:55;;;;;;;14.33;2.70;;;23.60;99.90;;;;;;4993185;28;20231;-59
2022/06/09 13:25:26;;;;;;;5.97;2.10;;;23.60;99.90;;;;;;5006965;28;20201;-59
2022/06/09 13:27:57;;;;;;;3.47;1.80;;;23.70;99.90;;;;;;5004181;28;20327;-59
2022/06/09 13:30:44;;;;;;;7.43;2.30;;;24.00;99.90;;;;;;4995222;28;20636;-59
2022/06/09 13:33:32;;;;;;;3.90;1.90;;;23.80;99.90;;;;;;5007636;28;20712;-60
2022/06/09 13:36:26;;;;;;;6.60;2.00;;;23.70;99.90;;;;;;5007943;28;20267;-59
2022/06/09 13:38:55;;;;;;;4.83;2.10;;;23.30;99.90;;;;;;5012317;28;20209;-59
2022/06/09 13:41:30;;;;;;;6.13;2.23;;;23.30;99.90;;;;;;5021667;28;20194;-59
2022/06/09 13:44:06;;;;;;;6.80;2.43;;;23.70;99.90;;;;;;5010783;28;20205;-59
2022/06/09 13:46:38;;;;;;;3.50;2.13;;;23.90;99.90;;;;;;5012653;28;20235;-59
2022/06/09 13:49:21;;;;;;;5.07;1.90;;;23.80;99.90;;;;;;5011703;28;20227;-59
2022/06/09 13:51:59;;;;;;;9.80;2.50;;;23.80;99.90;;;;;;5013859;28;20213;-59
2022/06/09 13:54:32;;;;;;;7.47;2.13;;;24.00;99.90;;;;;;5010633;28;20234;-59
2022/06/09 13:57:00;;;;;;;4.53;2.00;;;23.90;99.90;;;;;;5007550;28;20617;-59
2022/06/09 13:59:29;;;;;;;6.93;2.20;;;23.60;99.90;;;;;;5000328;28;20560;-58
2022/06/09 14:01:57;;;;;;;4.10;2.07;;;23.60;99.90;;;;;;5039807;28;20251;-58
2022/06/09 14:04:33;;;;;;;8.03;2.10;;;24.00;99.90;;;;;;5066725;28;20198;-59
2022/06/09 14:07:02;;;;;;;3.90;2.00;;;24.20;99.90;;;;;;5081368;28;20205;-58
2022/06/09 14:09:30;;;;;;;3.80;2.30;;;24.30;99.90;;;;;;5010742;28;20266;-59
2022/06/09 14:11:58;;;;;;;7.70;2.47;;;24.40;99.90;;;;;;5002487;28;20217;-59
2022/06/09 14:14:43;;;;;;;6.67;2.20;;;24.50;99.90;;;;;;4999423;28;20305;-57
2022/06/09 14:17:20;;;;;;;5.97;2.20;;;24.70;99.90;;;;;;5011867;28;20661;-56
2022/06/09 14:19:50;;;;;;;5.77;2.20;;;24.80;99.90;;;;;;5012015;28;20586;-56
2022/06/09 14:22:19;;;;;;;6.07;2.10;;;24.40;99.90;;;;;;5011351;28;20237;-56
2022/06/09 14:24:48;;;;;;;7.60;2.40;;;24.00;99.90;;;;;;5008951;28;20630;-55